NATURA VA

 METAR AND TAF INFORMATION
METAR FOR LEBZ
ADDS - METARS form results

(0324 UTC 16 January 2019)
Data provider http://aviationweather.gov/metar/data/
 
Forecast for: LEBZ (TALAVERA AB/BADA, ES)
Text: TAF LEBZ 152300Z 1600/1624 VRB03KT 9999 BKN025 TX13/1614Z TN00/1608Z
Forecast period: 0000 UTC 16 January 2019 to 0000 UTC 17 January 2019
Forecast type: FROM: standard forecast or significant change
Winds: variable direction winds at 3 MPH (3 knots; 1.5 m/s)
Visibility: 6 or more miles 10+ km)
Ceiling: 2500 feet AGL
Clouds: broken clouds at 2500 feet AGL
Weather: no significant weather forecast for this period
Text: PROB40
Forecast period: 0200 to 1000 UTC 16 January 2019
Forecast type: TEMPORARY: The following changes expected for less than half the time period
Visibility: 1.86 miles (2.99 km)
Ceiling: 300 feet AGL
Clouds: broken clouds at 300 feet AGL
Weather: BR  (mist)

 AIRPORT MAP

 RUNWAY INFORMATION
Runway 13 Runway length 9350 ft Runway width 197 ft
Runway elevation 579 ft Runway displaced threshold 0 ft Runway heading 126
Runway 31 Runway length 9350 ft Runway width 197 ft
Runway elevation 609 ft Runway displaced threshold 0 ft Runway heading 306

 AIRPORT FREQUENCIES
Type APP Name APP Frequency 139.3 MHZ
Type TWR Name BADAJOZ TW Frequency 122.1 MHZ

 AIRPORT NEAR NAVIGATION AIDS
Type NDB Name Badajoz Frequency 298 KHZ
Type TACAN Name Talavera Frequency 108800 KHZ
Type VOR-DME Name Badajoz Frequency 116800 KHZ



Powered by Virtual Airlines Manager [v2.6.2]